Terminal Aerodrome Forecast
Issued by NWS

Home | Current Version | Previous Version | Text Only | Print | Product List | Glossary On
Versions: 1 2 3 4 5 6 7 8 9 10 11 12 13 14 15 16 17 18 19 20 21 22 23 24 25 26 27 28 29 30 31 32 33 34
000
FTPA31 PHFO 251900 AAA
TAFLNY
TAF AMD
PHNY 251904Z 2519/2618 30006KT P6SM SCT025 BKN050
      TEMPO 2519/2521 BKN025
     FM252100 24007KT P6SM SCT025 SCT040
      TEMPO 2521/2601 BKN025
     FM260500 VRB04KT P6SM VCSH SCT025 BKN040
     FM261500 VRB04KT P6SM VCSH SCT015 BKN025
      AMD NOT SKED=

USA.gov is the U.S. government's official web portal to all federal, state and local government web resources and services.